Time;durP1;ratioP1;P1;durP2;ratioP2;P2;SDS_P1;SDS_P2;PMS_P1;PMS_P2;Temp;Humidity;BMP_temperature;BMP_pressure;BME280_temperature;BME280_humidity;BME280_pressure;Samples;Min_cycle;Max_cycle;Signal;HPM_P1;HPM_P2
2023/01/15 00:01:37;;;;;;;1.95;0.90;;;;;;;9.00;95.16;99213.41;6189831;23;20519;-68
2023/01/15 00:04:07;;;;;;;1.90;1.02;;;;;;;9.00;95.59;99198.06;6190184;23;20165;-68
2023/01/15 00:06:39;;;;;;;1.33;1.00;;;;;;;9.00;95.42;99203.44;6190051;23;20196;-70
2023/01/15 00:09:13;;;;;;;2.65;1.33;;;;;;;9.09;94.56;99196.66;6190023;23;20176;-68
2023/01/15 00:11:42;;;;;;;4.05;1.30;;;;;;;9.10;94.19;99190.16;6190211;23;20240;-69
2023/01/15 00:14:13;;;;;;;2.65;1.20;;;;;;;9.15;93.98;99203.78;6190271;23;20177;-68
2023/01/15 00:16:44;;;;;;;2.10;1.10;;;;;;;9.13;94.20;99192.44;6190029;23;20243;-67
2023/01/15 00:19:13;;;;;;;1.50;1.00;;;;;;;9.10;94.19;99198.28;6203662;23;20164;-68
2023/01/15 00:21:45;;;;;;;1.42;0.85;;;;;;;9.11;93.78;99199.09;6212299;23;20191;-68
2023/01/15 00:29:49;;;;;;;1.73;1.00;;;;;;;9.10;93.95;99187.47;6210647;23;20184;-67
2023/01/15 00:32:18;;;;;;;2.03;1.00;;;;;;;9.08;94.25;99189.59;6210112;23;20169;-67
2023/01/15 00:34:47;;;;;;;3.28;1.20;;;;;;;9.10;94.17;99181.28;6210027;23;20193;-67
2023/01/15 00:37:17;;;;;;;1.48;1.08;;;;;;;9.15;93.79;99173.28;6209818;23;20175;-68
2023/01/15 00:39:46;;;;;;;2.40;1.00;;;;;;;9.20;93.29;99172.59;6211907;23;20184;-68
2023/01/15 00:42:16;;;;;;;1.48;1.00;;;;;;;9.17;93.33;99165.78;6210271;23;20386;-68
2023/01/15 00:44:46;;;;;;;2.60;1.40;;;;;;;9.17;93.41;99160.38;6206841;23;20196;-67
2023/01/15 00:47:17;;;;;;;1.90;1.13;;;;;;;9.16;93.35;99148.78;6197778;23;20407;-69
2023/01/15 00:49:46;;;;;;;1.40;0.80;;;;;;;9.20;93.60;99151.00;6207335;23;20440;-68
2023/01/15 00:52:15;;;;;;;2.47;0.85;;;;;;;9.19;93.20;99149.38;6193104;23;20202;-68
2023/01/15 00:54:47;;;;;;;1.33;0.90;;;;;;;9.26;93.24;99158.97;6189606;23;20192;-69
2023/01/15 00:57:16;;;;;;;1.55;1.25;;;;;;;9.26;92.79;99171.66;6189987;23;20748;-68
2023/01/15 00:59:45;;;;;;;2.45;1.48;;;;;;;9.29;92.36;99153.13;6190533;23;20165;-68
2023/01/15 01:02:16;;;;;;;2.25;1.20;;;;;;;9.17;92.83;99144.19;6190770;23;20179;-68
2023/01/15 01:04:46;;;;;;;1.10;0.80;;;;;;;9.11;94.06;99150.53;6189666;23;20198;-68
2023/01/15 01:07:17;;;;;;;1.58;0.73;;;;;;;9.17;93.26;99146.91;6189183;23;20165;-67
2023/01/15 01:09:46;;;;;;;1.50;0.70;;;;;;;9.20;93.08;99134.81;6189208;23;20238;-69
2023/01/15 01:12:15;;;;;;;1.40;0.90;;;;;;;9.21;93.26;99145.38;6189202;23;20219;-67
2023/01/15 01:14:45;;;;;;;1.10;0.80;;;;;;;9.25;93.04;99148.41;6188878;23;20595;-68
2023/01/15 01:17:16;;;;;;;1.88;1.65;;;;;;;9.24;93.46;99158.41;6188988;23;20488;-67
2023/01/15 01:19:45;;;;;;;1.33;0.87;;;;;;;9.29;93.03;99150.41;6189294;23;20605;-67
2023/01/15 01:22:14;;;;;;;3.55;0.90;;;;;;;9.27;93.34;99132.81;6215949;23;20391;-67
2023/01/15 01:24:43;;;;;;;1.20;0.70;;;;;;;9.33;93.05;99131.88;6188699;23;20723;-68
2023/01/15 01:27:12;;;;;;;1.13;0.83;;;;;;;9.42;92.54;99133.16;6189127;23;20412;-68
2023/01/15 01:30:33;;;;;;;1.35;0.93;;;;;;;9.39;92.17;99153.31;6190075;23;20407;-68
2023/01/15 01:33:04;;;;;;;1.45;1.05;;;;;;;9.43;91.93;99153.69;6216337;23;20153;-68
2023/01/15 01:35:33;;;;;;;1.50;0.90;;;;;;;9.41;92.44;99150.41;6189602;23;20293;-67
2023/01/15 01:38:02;;;;;;;1.08;0.70;;;;;;;9.40;92.39;99141.47;6189703;23;20419;-68
2023/01/15 01:40:32;;;;;;;2.03;1.07;;;;;;;9.38;92.60;99145.47;6193146;23;20164;-70
2023/01/15 01:43:01;;;;;;;1.38;0.90;;;;;;;9.41;92.65;99129.63;6192283;23;20439;-68
2023/01/15 01:45:32;;;;;;;1.30;1.00;;;;;;;9.45;92.65;99119.16;6197743;23;20188;-68
2023/01/15 01:48:07;;;;;;;1.77;1.10;;;;;;;9.52;92.64;99122.56;6226788;23;20402;-68
2023/01/15 01:50:39;;;;;;;0.98;0.70;;;;;;;9.52;92.29;99125.25;6196071;23;20234;-68
2023/01/15 01:53:12;;;;;;;1.73;0.97;;;;;;;9.49;92.76;99125.72;6195645;23;20233;-69
2023/01/15 01:55:42;;;;;;;1.33;1.00;;;;;;;9.44;93.67;99131.03;6192002;23;20445;-66
2023/01/15 01:58:13;;;;;;;1.00;0.80;;;;;;;9.48;93.82;99137.59;6218987;23;20419;-67
2023/01/15 02:00:48;;;;;;;1.25;0.80;;;;;;;9.39;94.47;99136.31;6193109;23;20713;-69
2023/01/15 02:03:22;;;;;;;2.03;1.23;;;;;;;9.40;95.25;99137.94;6189727;23;20310;-68
2023/01/15 02:05:55;;;;;;;1.40;0.73;;;;;;;9.41;95.40;99128.78;6189839;23;20417;-68
2023/01/15 02:08:24;;;;;;;2.03;0.60;;;;;;;9.39;95.58;99128.22;6216177;23;20720;-68
2023/01/15 02:10:56;;;;;;;1.60;0.77;;;;;;;9.36;96.39;99126.00;6189197;23;20428;-68
2023/01/15 02:13:38;;;;;;;1.30;1.00;;;;;;;9.31;96.96;99128.56;6188288;23;20215;-68
2023/01/15 02:16:15;;;;;;;1.10;0.70;;;;;;;9.31;97.98;99131.28;6215059;23;20184;-69
2023/01/15 02:18:54;;;;;;;1.35;0.82;;;;;;;9.29;98.41;99125.31;6188788;23;20791;-68
2023/01/15 02:21:31;;;;;;;1.80;1.23;;;;;;;9.22;99.17;99119.19;6189106;23;20575;-68
2023/01/15 02:24:12;;;;;;;1.10;0.77;;;;;;;9.25;100.00;99118.72;6187759;23;20165;-67
2023/01/15 02:27:07;;;;;;;1.00;0.65;;;;;;;9.24;100.00;99133.28;6214390;23;20405;-68
2023/01/15 02:29:48;;;;;;;1.10;0.73;;;;;;;9.20;100.00;99137.53;6189402;23;20184;-69
2023/01/15 02:32:32;;;;;;;2.85;0.90;;;;;;;9.14;100.00;99129.31;6188152;23;20251;-69
2023/01/15 02:35:07;;;;;;;3.10;2.80;;;;;;;9.19;100.00;99127.78;6187906;23;20287;-67
2023/01/15 02:37:41;;;;;;;1.10;0.90;;;;;;;9.20;100.00;99121.34;6187949;23;20442;-68
2023/01/15 02:40:13;;;;;;;1.40;0.85;;;;;;;9.02;100.00;99124.97;6187915;23;20168;-68
2023/01/15 02:42:47;;;;;;;1.30;0.60;;;;;;;9.05;100.00;99124.50;6187846;23;20188;-68
2023/01/15 02:45:23;;;;;;;2.28;0.90;;;;;;;9.11;100.00;99118.97;6188030;23;20199;-68
2023/01/15 02:47:55;;;;;;;1.00;0.77;;;;;;;9.09;100.00;99104.91;6187544;23;20160;-68
2023/01/15 02:50:29;;;;;;;1.58;0.95;;;;;;;9.10;100.00;99106.53;6188017;23;20244;-70
2023/01/15 02:53:04;;;;;;;1.45;0.80;;;;;;;9.12;100.00;99112.53;6214676;23;20317;-69
2023/01/15 02:55:42;;;;;;;0.90;0.60;;;;;;;9.17;100.00;99111.81;6187735;23;20192;-68
2023/01/15 02:58:17;;;;;;;1.50;0.90;;;;;;;9.04;100.00;99107.50;6188122;23;20164;-68
2023/01/15 03:00:52;;;;;;;1.60;0.80;;;;;;;9.09;100.00;99104.09;6188090;23;20554;-68
2023/01/15 03:03:31;;;;;;;0.90;0.60;;;;;;;9.03;100.00;99110.41;6188014;23;20165;-68
2023/01/15 03:06:05;;;;;;;1.00;0.70;;;;;;;9.13;100.00;99116.03;6187241;23;20603;-68
2023/01/15 03:08:36;;;;;;;1.25;0.70;;;;;;;9.14;100.00;99117.69;6187808;23;20619;-67
2023/01/15 03:11:09;;;;;;;1.45;0.80;;;;;;;9.14;100.00;99113.13;6187671;23;20192;-67
2023/01/15 03:13:51;;;;;;;2.73;0.87;;;;;;;9.21;100.00;99106.75;6187823;23;20165;-67
2023/01/15 03:16:37;;;;;;;4.80;0.87;;;;;;;9.16;100.00;99105.59;6187951;23;20885;-66
2023/01/15 03:19:19;;;;;;;2.50;0.80;;;;;;;9.09;100.00;99107.59;6187957;23;20450;-67
2023/01/15 03:21:56;;;;;;;2.03;1.13;;;;;;;9.14;100.00;99107.72;6189003;23;20411;-68
2023/01/15 03:24:40;;;;;;;1.53;0.90;;;;;;;9.08;100.00;99097.03;6188581;23;20465;-68
2023/01/15 03:27:10;;;;;;;1.50;0.80;;;;;;;9.07;100.00;99101.63;6187717;23;20412;-66
2023/01/15 03:29:47;;;;;;;1.75;0.75;;;;;;;9.25;100.00;99099.81;6187346;23;20473;-67
2023/01/15 03:32:18;;;;;;;1.23;0.90;;;;;;;9.22;100.00;99109.22;6187620;23;20252;-68
2023/01/15 03:34:50;;;;;;;1.30;1.00;;;;;;;9.18;100.00;99101.84;6190541;23;20410;-68
2023/01/15 03:37:23;;;;;;;2.95;1.25;;;;;;;9.14;100.00;99109.59;6193376;23;20169;-68
2023/01/15 03:39:55;;;;;;;2.25;1.55;;;;;;;9.23;100.00;99110.88;6193861;23;20179;-67
2023/01/15 03:42:37;;;;;;;2.30;1.50;;;;;;;9.25;100.00;99103.34;6192891;23;20164;-67
2023/01/15 03:45:15;;;;;;;2.73;1.67;;;;;;;9.26;100.00;99105.00;6192389;23;20763;-67
2023/01/15 03:47:54;;;;;;;4.03;1.13;;;;;;;9.29;100.00;99117.22;6189758;23;20408;-67
2023/01/15 03:50:32;;;;;;;6.78;0.90;;;;;;;9.32;100.00;99127.53;6189724;23;20433;-67
2023/01/15 03:53:11;;;;;;;1.00;0.67;;;;;;;9.34;100.00;99117.31;6189517;23;20172;-68
2023/01/15 03:55:55;;;;;;;1.30;0.80;;;;;;;9.24;100.00;99112.53;6189099;23;20435;-67
2023/01/15 03:58:29;;;;;;;1.07;0.80;;;;;;;9.31;100.00;99117.78;6189541;23;20933;-68
2023/01/15 04:01:03;;;;;;;1.17;0.60;;;;;;;9.33;100.00;99146.19;6215987;23;20379;-67
2023/01/15 04:03:35;;;;;;;3.00;0.77;;;;;;;9.20;100.00;99170.69;6189445;23;20239;-68
2023/01/15 04:06:07;;;;;;;1.70;0.80;;;;;;;8.95;100.00;99179.03;6189046;23;20436;-68
2023/01/15 04:08:42;;;;;;;0.90;0.60;;;;;;;8.55;100.00;99184.25;6189249;23;20406;-68
2023/01/15 04:11:11;;;;;;;2.15;0.80;;;;;;;8.33;100.00;99187.69;6189814;23;20231;-67
2023/01/15 04:13:46;;;;;;;4.70;1.10;;;;;;;8.11;100.00;99201.63;6189318;23;20614;-68
2023/01/15 04:16:33;;;;;;;2.60;1.13;;;;;;;7.96;100.00;99211.94;6188897;23;20185;-68
2023/01/15 04:19:03;;;;;;;1.27;0.70;;;;;;;7.85;100.00;99226.16;6189169;23;20169;-67
2023/01/15 04:21:35;;;;;;;0.80;0.68;;;;;;;7.48;98.97;99232.59;6188886;23;20625;-68
2023/01/15 04:24:05;;;;;;;1.88;0.60;;;;;;;7.27;100.00;99255.34;6188982;23;20173;-67
2023/01/15 04:26:34;;;;;;;0.95;0.60;;;;;;;7.05;99.34;99262.97;6188974;23;20189;-67
2023/01/15 04:29:03;;;;;;;0.90;0.60;;;;;;;6.78;98.37;99269.56;6188897;23;20173;-67
2023/01/15 04:31:35;;;;;;;0.90;0.50;;;;;;;6.56;96.61;99271.78;6189294;23;20196;-67
2023/01/15 04:34:04;;;;;;;0.90;0.60;;;;;;;6.42;96.72;99265.66;6189328;23;20239;-68
2023/01/15 04:36:35;;;;;;;1.23;0.65;;;;;;;6.29;94.57;99267.59;6189212;23;20192;-67
2023/01/15 04:39:05;;;;;;;1.63;0.70;;;;;;;6.20;95.62;99269.69;6189632;23;20226;-68
2023/01/15 04:44:25;;;;;;;3.95;0.80;;;;;;;6.02;96.10;99289.19;6189027;23;20164;-68
2023/01/15 04:46:58;;;;;;;1.00;0.70;;;;;;;5.97;95.49;99285.47;6189073;23;20515;-67
2023/01/15 04:49:28;;;;;;;1.42;0.70;;;;;;;5.86;93.67;99281.53;6188993;23;20173;-67
2023/01/15 04:51:57;;;;;;;2.22;0.95;;;;;;;5.81;94.98;99288.59;6188977;23;20652;-66
2023/01/15 04:54:27;;;;;;;1.00;0.70;;;;;;;5.80;94.44;99297.69;6189063;23;20176;-67
2023/01/15 04:56:56;;;;;;;2.13;0.80;;;;;;;5.77;92.72;99295.41;6189699;23;20292;-68
2023/01/15 04:59:27;;;;;;;1.30;0.60;;;;;;;5.78;93.96;99287.16;6190165;23;20172;-67
2023/01/15 05:01:58;;;;;;;4.03;1.15;;;;;;;5.86;95.24;99281.53;6191849;23;20652;-69
2023/01/15 05:04:34;;;;;;;1.02;0.70;;;;;;;5.89;94.21;99288.41;6218586;23;20152;-68
2023/01/15 05:07:05;;;;;;;1.40;0.90;;;;;;;5.85;94.62;99292.50;6188720;23;20179;-69
2023/01/15 05:09:34;;;;;;;1.38;0.70;;;;;;;5.86;95.15;99299.50;6188677;23;20192;-67
2023/01/15 05:12:04;;;;;;;1.05;0.68;;;;;;;5.91;96.37;99292.50;6215324;23;20259;-70
2023/01/15 05:14:33;;;;;;;1.60;0.65;;;;;;;5.87;95.61;99282.41;6188462;23;20503;-68
2023/01/15 05:17:03;;;;;;;1.50;0.65;;;;;;;5.99;95.99;99283.41;6188640;23;20173;-67
2023/01/15 05:19:33;;;;;;;1.67;0.75;;;;;;;5.92;94.50;99294.16;6195509;23;20179;-66
2023/01/15 05:22:02;;;;;;;1.27;0.60;;;;;;;6.02;95.39;99282.97;6200580;23;20660;-68
2023/01/15 05:24:31;;;;;;;1.40;0.75;;;;;;;6.01;96.03;99270.59;6201336;23;20174;-68
2023/01/15 05:27:01;;;;;;;4.78;0.90;;;;;;;5.98;95.96;99271.03;6199385;23;20172;-68
2023/01/15 05:29:30;;;;;;;2.03;0.60;;;;;;;5.95;95.66;99274.97;6218621;23;20500;-68
2023/01/15 05:32:00;;;;;;;2.55;0.73;;;;;;;5.95;97.53;99277.66;6214336;23;20569;-67
2023/01/15 05:34:30;;;;;;;1.20;0.75;;;;;;;6.00;95.82;99277.81;6189158;23;20556;-67
2023/01/15 05:36:59;;;;;;;1.35;0.70;;;;;;;6.02;95.63;99277.59;6189674;23;20206;-67
2023/01/15 05:39:29;;;;;;;1.42;1.30;;;;;;;5.98;95.93;99281.75;6215827;23;20609;-68
2023/01/15 05:41:58;;;;;;;2.22;1.33;;;;;;;6.04;96.93;99281.75;6190269;23;20219;-66
2023/01/15 05:44:29;;;;;;;2.03;0.75;;;;;;;6.10;96.75;99277.38;6190767;23;20214;-67
2023/01/15 05:47:01;;;;;;;5.25;1.27;;;;;;;6.09;96.45;99279.25;6190372;23;20161;-67
2023/01/15 05:49:32;;;;;;;4.53;0.70;;;;;;;6.14;96.27;99286.66;6190051;23;20188;-68
2023/01/15 05:52:02;;;;;;;1.10;0.60;;;;;;;6.11;96.53;99287.06;6215293;23;20184;-68
2023/01/15 05:54:33;;;;;;;1.38;0.73;;;;;;;6.18;97.01;99285.19;6189670;23;20160;-67
2023/01/15 05:57:03;;;;;;;2.65;0.70;;;;;;;6.17;94.91;99286.22;6216799;23;20149;-68
2023/01/15 05:59:33;;;;;;;2.28;0.70;;;;;;;6.22;96.03;99267.63;6188748;23;20169;-68
2023/01/15 06:02:02;;;;;;;2.03;0.60;;;;;;;6.14;96.03;99267.88;6188128;23;20549;-67
2023/01/15 06:04:33;;;;;;;0.82;0.52;;;;;;;6.20;96.46;99267.00;6188383;23;20177;-67
2023/01/15 06:07:02;;;;;;;1.13;0.60;;;;;;;6.19;95.71;99270.75;6188365;23;20172;-68
2023/01/15 06:09:32;;;;;;;2.38;0.70;;;;;;;6.17;95.45;99259.38;6188283;23;20535;-68
2023/01/15 06:12:01;;;;;;;1.10;0.60;;;;;;;6.20;95.12;99269.69;6187992;23;20215;-67
2023/01/15 06:14:30;;;;;;;4.50;1.13;;;;;;;6.19;94.63;99259.16;6187810;23;20177;-69
2023/01/15 06:16:59;;;;;;;1.00;0.60;;;;;;;6.32;94.79;99257.25;6187859;23;20223;-69
2023/01/15 06:19:28;;;;;;;1.02;0.50;;;;;;;6.34;92.61;99255.16;6188216;23;20173;-67
2023/01/15 06:21:59;;;;;;;1.55;0.80;;;;;;;6.26;92.98;99260.78;6188182;23;20169;-67
2023/01/15 06:24:28;;;;;;;1.10;0.60;;;;;;;6.24;93.88;99254.00;6187829;23;20188;-67
2023/01/15 06:26:57;;;;;;;3.15;0.90;;;;;;;6.19;93.88;99251.94;6187996;23;20169;-67
2023/01/15 06:29:27;;;;;;;1.90;0.82;;;;;;;6.24;93.39;99262.03;6187752;23;20176;-67
2023/01/15 06:31:56;;;;;;;0.95;0.52;;;;;;;6.34;92.96;99260.53;6188023;23;20226;-69
2023/01/15 06:34:26;;;;;;;3.10;1.20;;;;;;;6.44;91.83;99270.81;6188181;23;20199;-68
2023/01/15 06:36:55;;;;;;;1.00;0.60;;;;;;;6.43;91.17;99267.31;6187982;23;20173;-70
2023/01/15 06:39:25;;;;;;;1.58;0.60;;;;;;;6.37;91.35;99278.91;6188014;23;20242;-68
2023/01/15 06:47:28;;;;;;;3.90;1.00;;;;;;;6.18;90.68;99276.31;6187983;23;20173;-68
2023/01/15 06:49:59;;;;;;;1.10;0.73;;;;;;;6.20;91.02;99275.06;6188244;23;20183;-69
2023/01/15 06:52:29;;;;;;;1.85;0.80;;;;;;;6.18;91.32;99282.53;6188074;23;20503;-69
2023/01/15 06:55:00;;;;;;;1.13;0.90;;;;;;;6.16;91.63;99278.38;6188298;23;20209;-67
2023/01/15 06:57:29;;;;;;;2.35;1.25;;;;;;;6.15;92.29;99285.59;6188290;23;20223;-69
2023/01/15 06:59:58;;;;;;;1.33;0.88;;;;;;;6.13;93.55;99297.63;6214780;23;20176;-68
2023/01/15 07:02:28;;;;;;;3.35;1.00;;;;;;;6.24;93.49;99289.72;6188096;23;20169;-68
2023/01/15 07:04:57;;;;;;;1.00;0.70;;;;;;;6.20;92.22;99291.16;6187934;23;20192;-68
2023/01/15 07:07:29;;;;;;;1.42;0.80;;;;;;;6.33;92.96;99303.75;6214994;23;20165;-70
2023/01/15 07:10:00;;;;;;;1.45;0.80;;;;;;;6.37;92.95;99302.28;6190084;23;20172;-68
2023/01/15 07:12:29;;;;;;;3.70;1.02;;;;;;;6.37;92.27;99299.59;6190446;23;20184;-68
2023/01/15 07:14:59;;;;;;;1.55;1.15;;;;;;;6.35;93.29;99310.53;6191471;23;20185;-68
2023/01/15 07:17:28;;;;;;;2.03;0.93;;;;;;;6.37;92.49;99296.91;6190826;23;20694;-68
2023/01/15 07:19:58;;;;;;;1.85;0.98;;;;;;;6.38;91.24;99302.06;6217057;23;20219;-67
2023/01/15 07:22:27;;;;;;;2.95;0.90;;;;;;;6.19;91.36;99289.53;6190551;23;20169;-68
2023/01/15 07:24:56;;;;;;;2.45;0.60;;;;;;;6.13;91.49;99295.75;6190637;23;20593;-68
2023/01/15 07:27:27;;;;;;;4.30;1.50;;;;;;;6.15;91.16;99296.34;6189975;23;20173;-68
2023/01/15 07:29:56;;;;;;;1.50;0.70;;;;;;;6.00;91.72;99301.19;6190033;23;20208;-69
2023/01/15 07:32:25;;;;;;;7.00;1.00;;;;;;;6.02;91.13;99299.91;6189908;23;20680;-68
2023/01/15 07:34:54;;;;;;;2.85;1.00;;;;;;;6.16;91.15;99310.59;6190368;23;20189;-68
2023/01/15 07:37:24;;;;;;;2.67;1.00;;;;;;;6.24;92.64;99305.84;6190365;23;20168;-68
2023/01/15 07:39:56;;;;;;;1.55;0.70;;;;;;;6.19;91.76;99299.47;6190390;23;20244;-68
2023/01/15 07:50:46;;;;;;;1.80;1.10;;;;;;;6.14;92.94;99318.06;6216711;23;20473;-68
2023/01/15 07:53:16;;;;;;;2.00;0.85;;;;;;;6.10;91.79;99320.31;6189743;23;20643;-70
2023/01/15 07:55:46;;;;;;;1.50;0.75;;;;;;;6.13;91.87;99330.66;6190629;23;20189;-69
2023/01/15 07:58:16;;;;;;;1.85;0.80;;;;;;;6.05;92.05;99325.53;6190142;23;20161;-69
2023/01/15 08:00:46;;;;;;;2.53;0.70;;;;;;;6.04;92.59;99332.75;6190222;23;20165;-67
2023/01/15 08:03:15;;;;;;;2.15;1.08;;;;;;;6.18;92.77;99335.41;6190316;23;20625;-67
2023/01/15 08:05:44;;;;;;;1.52;0.80;;;;;;;6.14;92.54;99335.00;6190098;23;20196;-69
2023/01/15 08:08:16;;;;;;;2.20;0.98;;;;;;;6.15;93.31;99347.38;6217032;23;20620;-69
2023/01/15 08:16:17;;;;;;;2.17;1.00;;;;;;;6.06;92.44;99317.25;6189549;23;20193;-68
2023/01/15 08:18:46;;;;;;;4.22;1.15;;;;;;;6.16;92.15;99310.59;6189593;23;20173;-69
2023/01/15 08:21:15;;;;;;;1.30;0.80;;;;;;;6.23;91.75;99301.50;6188583;23;20235;-68
2023/01/15 08:23:46;;;;;;;1.98;1.00;;;;;;;6.22;90.99;99305.22;6189396;23;20173;-68
2023/01/15 08:26:15;;;;;;;1.65;1.00;;;;;;;6.20;90.72;99301.91;6189321;23;20292;-69
2023/01/15 08:28:46;;;;;;;3.78;1.40;;;;;;;6.20;90.78;99307.28;6189217;23;20168;-69
2023/01/15 08:31:15;;;;;;;2.40;0.82;;;;;;;6.25;90.16;99315.53;6189227;23;20215;-68
2023/01/15 08:33:44;;;;;;;2.50;0.88;;;;;;;6.25;90.28;99320.91;6215685;23;20611;-67
2023/01/15 08:36:14;;;;;;;2.60;1.45;;;;;;;6.27;90.41;99329.59;6189062;23;20267;-68
2023/01/15 08:38:44;;;;;;;1.60;1.00;;;;;;;6.25;90.46;99326.28;6189436;23;20694;-69
2023/01/15 08:41:13;;;;;;;3.38;1.13;;;;;;;6.27;90.80;99326.06;6188843;23;20227;-68
2023/01/15 08:43:44;;;;;;;2.70;1.08;;;;;;;6.34;89.78;99332.25;6188830;23;20176;-68
2023/01/15 08:46:15;;;;;;;1.30;0.90;;;;;;;6.28;90.68;99331.25;6189015;23;20230;-68
2023/01/15 08:48:44;;;;;;;4.00;1.33;;;;;;;6.40;89.52;99334.91;6189150;23;20181;-68
2023/01/15 08:51:14;;;;;;;2.08;1.00;;;;;;;6.31;89.69;99333.50;6189253;23;20175;-68
2023/01/15 08:53:43;;;;;;;1.65;0.90;;;;;;;6.34;89.63;99330.38;6188928;23;20188;-68
2023/01/15 08:56:13;;;;;;;4.55;1.02;;;;;;;6.47;88.45;99327.66;6189115;23;20195;-69
2023/01/15 08:58:43;;;;;;;2.35;0.85;;;;;;;6.59;87.57;99326.97;6189077;23;20171;-67
2023/01/15 09:01:14;;;;;;;0.93;0.73;;;;;;;6.51;87.96;99325.34;6189320;23;20176;-68
2023/01/15 09:03:44;;;;;;;1.85;1.20;;;;;;;6.55;86.56;99334.63;6189111;23;20622;-68
2023/01/15 09:06:13;;;;;;;5.40;1.35;;;;;;;6.63;86.95;99349.69;6188464;23;20184;-67
2023/01/15 09:08:43;;;;;;;3.53;1.10;;;;;;;6.59;87.51;99341.22;6188685;23;20518;-70
2023/01/15 09:11:12;;;;;;;1.98;1.00;;;;;;;6.60;87.51;99355.50;6188929;23;20173;-68
2023/01/15 09:13:41;;;;;;;4.13;1.30;;;;;;;6.70;87.19;99361.22;6188575;23;20284;-68
2023/01/15 09:16:12;;;;;;;4.30;1.40;;;;;;;6.69;85.93;99351.50;6188497;23;20196;-68
2023/01/15 09:18:43;;;;;;;2.75;1.23;;;;;;;6.72;85.31;99348.41;6215392;23;20164;-68
2023/01/15 09:21:12;;;;;;;2.42;1.17;;;;;;;6.80;86.65;99353.53;6189022;23;20172;-68
2023/01/15 09:23:41;;;;;;;3.05;1.33;;;;;;;6.82;85.33;99359.53;6188994;23;20232;-68
2023/01/15 09:26:28;;;;;;;2.03;1.25;;;;;;;6.86;85.32;99350.81;6188768;23;20189;-68
2023/01/15 09:28:57;;;;;;;5.35;1.30;;;;;;;6.81;84.53;99353.31;6189070;23;20195;-69
2023/01/15 09:31:27;;;;;;;1.75;1.08;;;;;;;6.91;84.14;99367.13;6188815;23;20173;-68
2023/01/15 09:33:59;;;;;;;4.45;1.55;;;;;;;7.07;84.12;99357.69;6189816;23;20181;-68
2023/01/15 09:36:30;;;;;;;7.93;1.92;;;;;;;7.13;83.93;99356.84;6189993;23;20287;-67
2023/01/15 09:39:00;;;;;;;4.72;1.60;;;;;;;7.07;83.00;99367.66;6190484;23;20207;-68
2023/01/15 09:44:35;;;;;;;4.00;1.05;;;;;;;6.91;82.66;99364.44;6190262;23;20161;-69
2023/01/15 09:47:11;;;;;;;6.78;1.92;;;;;;;6.99;82.95;99376.78;6193189;23;20566;-68
2023/01/15 09:49:58;;;;;;;2.67;1.00;;;;;;;6.85;82.69;99375.22;6220525;23;20174;-69
2023/01/15 09:52:43;;;;;;;1.60;1.00;;;;;;;6.82;82.62;99381.03;6195034;23;20188;-68
2023/01/15 09:55:16;;;;;;;7.50;1.10;;;;;;;7.06;82.16;99366.00;6193012;23;20545;-68
2023/01/15 09:57:49;;;;;;;1.67;1.05;;;;;;;7.15;80.83;99370.91;6193346;23;20165;-68
2023/01/15 10:00:22;;;;;;;1.58;0.90;;;;;;;7.26;80.02;99367.50;6218438;23;20156;-69
2023/01/15 10:02:58;;;;;;;1.88;0.85;;;;;;;7.42;79.92;99372.38;6190680;23;20164;-69
2023/01/15 10:05:34;;;;;;;2.50;1.35;;;;;;;7.39;79.18;99372.81;6190791;23;20195;-68
2023/01/15 10:08:11;;;;;;;3.25;0.95;;;;;;;7.31;78.96;99369.56;6189703;23;20171;-69
2023/01/15 10:10:45;;;;;;;1.45;0.90;;;;;;;7.35;79.30;99362.72;6215938;23;20601;-69
2023/01/15 10:13:23;;;;;;;1.40;0.75;;;;;;;7.22;78.96;99357.41;6189048;23;20508;-69
2023/01/15 10:15:52;;;;;;;1.90;0.88;;;;;;;7.23;79.75;99351.81;6189369;23;20262;-68
2023/01/15 10:18:25;;;;;;;1.65;0.90;;;;;;;7.28;77.57;99360.06;6189869;23;20564;-68
2023/01/15 10:21:21;;;;;;;2.60;1.42;;;;;;;7.50;77.74;99362.38;6190935;23;20188;-69
2023/01/15 10:24:02;;;;;;;1.80;1.58;;;;;;;7.67;77.07;99361.59;6189399;23;20173;-67
2023/01/15 10:26:36;;;;;;;7.63;2.15;;;;;;;7.63;76.44;99367.66;6188997;23;20192;-68
2023/01/15 10:29:16;;;;;;;3.15;1.13;;;;;;;7.59;76.04;99355.69;6189214;23;20569;-67
2023/01/15 10:31:54;;;;;;;3.10;1.33;;;;;;;7.61;75.44;99346.31;6189314;23;20164;-69
2023/01/15 10:34:56;;;;;;;4.30;1.10;;;;;;;7.72;74.91;99356.38;6188889;23;20204;-68
2023/01/15 10:37:31;;;;;;;1.95;0.85;;;;;;;7.81;73.89;99351.53;6152262;23;20651;-69
2023/01/15 10:40:23;;;;;;;2.17;0.80;;;;;;;8.05;73.97;99349.84;6191340;23;20219;-69
2023/01/15 10:43:02;;;;;;;1.30;0.80;;;;;;;7.89;72.69;99355.84;6192185;23;20199;-69
2023/01/15 10:45:34;;;;;;;2.40;1.10;;;;;;;8.04;73.12;99353.59;6194766;23;20247;-68
2023/01/15 10:48:12;;;;;;;4.07;0.80;;;;;;;7.90;72.26;99358.28;6194329;23;20178;-68
2023/01/15 10:50:42;;;;;;;4.43;1.05;;;;;;;7.84;73.02;99362.69;6195967;23;20191;-68
2023/01/15 10:53:24;;;;;;;1.48;1.02;;;;;;;7.84;72.55;99364.56;6222331;23;20192;-69
2023/01/15 10:56:00;;;;;;;2.45;0.90;;;;;;;7.91;72.70;99353.72;6193270;23;20205;-71
2023/01/15 10:58:37;;;;;;;4.07;0.95;;;;;;;7.99;72.13;99354.25;6191651;23;20568;-68
2023/01/15 11:01:11;;;;;;;1.45;0.90;;;;;;;8.05;71.95;99356.06;6192329;23;20161;-68
2023/01/15 11:03:43;;;;;;;2.88;1.15;;;;;;;8.05;71.41;99366.00;6191103;23;20297;-67
2023/01/15 11:06:16;;;;;;;1.65;0.85;;;;;;;8.14;71.30;99373.59;6190766;23;20192;-66
2023/01/15 11:08:51;;;;;;;2.72;0.88;;;;;;;7.97;70.64;99371.69;6190657;23;20191;-68
2023/01/15 11:20:27;;;;;;;3.60;0.93;;;;;;;7.99;70.69;99378.50;6191213;23;20251;-69
2023/01/15 11:22:57;;;;;;;2.00;0.82;;;;;;;7.89;70.45;99370.09;6191286;23;20345;-69
2023/01/15 11:25:30;;;;;;;2.78;1.20;;;;;;;7.84;70.85;99368.06;6190489;23;20193;-69
2023/01/15 11:28:01;;;;;;;9.70;1.67;;;;;;;7.83;71.31;99362.94;6191122;23;20699;-71
2023/01/15 11:30:33;;;;;;;1.77;0.98;;;;;;;7.89;69.85;99364.72;6192570;23;20636;-70
2023/01/15 11:33:03;;;;;;;2.90;0.73;;;;;;;7.78;69.73;99365.47;6194736;23;20168;-69
2023/01/15 11:35:34;;;;;;;8.18;2.00;;;;;;;7.90;69.92;99374.44;6194659;23;20669;-70
2023/01/15 11:38:05;;;;;;;1.00;0.70;;;;;;;7.80;69.75;99364.19;6192702;23;20195;-71
2023/01/15 11:40:36;;;;;;;1.70;0.90;;;;;;;7.84;69.98;99368.06;6191920;23;20200;-70
2023/01/15 11:51:42;;;;;;;1.95;1.20;;;;;;;8.06;69.68;99360.41;6190527;23;20169;-69
2023/01/15 11:54:15;;;;;;;4.30;1.27;;;;;;;7.79;69.53;99372.50;6217193;23;20157;-71
2023/01/15 11:56:47;;;;;;;1.73;1.25;;;;;;;7.94;69.75;99359.47;6216353;23;20208;-70
2023/01/15 11:59:19;;;;;;;9.32;2.10;;;;;;;7.84;69.01;99359.19;6216874;23;20172;-69
2023/01/15 12:01:58;;;;;;;2.35;1.23;;;;;;;7.85;69.68;99367.03;6190419;23;20207;-68
2023/01/15 12:04:34;;;;;;;2.83;1.30;;;;;;;7.74;70.39;99358.88;6190060;23;20161;-68
2023/01/15 12:07:06;;;;;;;3.70;0.90;;;;;;;7.87;69.66;99353.34;6189980;23;20168;-70
2023/01/15 12:09:57;;;;;;;2.20;1.45;;;;;;;7.90;69.65;99352.91;6189977;23;20180;-69
2023/01/15 12:12:41;;;;;;;1.33;0.85;;;;;;;8.01;69.30;99354.88;6190079;23;20161;-68
2023/01/15 12:15:23;;;;;;;1.88;1.02;;;;;;;7.83;69.23;99352.16;6217348;23;20196;-71
2023/01/15 12:18:17;;;;;;;8.23;1.35;;;;;;;7.94;69.30;99346.00;6192486;23;20169;-70
2023/01/15 12:21:24;;;;;;;7.10;1.50;;;;;;;7.90;68.54;99352.91;6192230;23;20158;-69
2023/01/15 12:24:20;;;;;;;5.82;1.88;;;;;;;7.93;68.91;99357.84;6194312;23;20184;-71
2023/01/15 12:27:06;;;;;;;3.35;1.05;;;;;;;7.89;68.11;99367.41;6195026;23;20311;-70
2023/01/15 12:29:44;;;;;;;2.42;0.80;;;;;;;7.89;68.38;99362.00;6193869;23;20683;-71
2023/01/15 12:32:17;;;;;;;3.75;1.55;;;;;;;7.89;69.04;99356.63;6192580;23;20672;-69
2023/01/15 12:34:51;;;;;;;4.13;1.00;;;;;;;8.00;68.52;99355.09;6219446;23;20188;-70
2023/01/15 12:37:25;;;;;;;2.17;1.10;;;;;;;7.98;68.33;99344.56;6219113;23;20152;-72
2023/01/15 12:39:59;;;;;;;4.07;1.45;;;;;;;8.15;68.47;99340.22;6194132;23;20245;-70
2023/01/15 12:45:23;;;;;;;2.30;0.90;;;;;;;8.03;66.96;99335.78;6190282;23;20645;-71
2023/01/15 12:47:58;;;;;;;1.73;1.00;;;;;;;7.99;67.40;99335.41;6189908;23;20508;-70
2023/01/15 12:50:43;;;;;;;2.85;1.00;;;;;;;8.01;67.36;99338.69;6217308;23;20156;-70
2023/01/15 12:53:17;;;;;;;2.08;0.90;;;;;;;8.02;67.38;99334.16;6190763;23;20169;-71
2023/01/15 12:55:52;;;;;;;4.10;1.13;;;;;;;7.93;67.23;99336.31;6190045;23;20189;-69
2023/01/15 12:58:37;;;;;;;1.25;0.90;;;;;;;7.91;67.93;99343.78;6190025;23;20274;-70
2023/01/15 13:01:17;;;;;;;1.92;1.17;;;;;;;7.60;68.00;99330.41;6190185;23;20215;-71